createdAt,value
2023-02-22T00:01:13.017Z,0.0
2023-02-22T00:05:08.054Z,0.0
2023-02-22T00:10:08.982Z,0.0
2023-02-22T00:15:08.150Z,0.0
2023-02-22T00:20:08.238Z,0.0
2023-02-22T00:25:08.246Z,0.0
2023-02-22T00:30:08.327Z,0.0
2023-02-22T00:35:08.439Z,0.0
2023-02-22T00:40:10.805Z,0.0
2023-02-22T00:45:08.865Z,0.0
2023-02-22T00:50:09.009Z,0.0
2023-02-22T00:55:08.081Z,0.0
2023-02-22T01:00:08.077Z,0.0
2023-02-22T01:05:08.137Z,0.0
2023-02-22T01:10:08.234Z,0.0
2023-02-22T01:15:08.316Z,0.0
2023-02-22T01:20:08.425Z,0.0
2023-02-22T01:25:08.509Z,0.0
2023-02-22T01:30:08.701Z,0.0
2023-02-22T01:35:08.782Z,0.0
2023-02-22T01:40:08.888Z,0.0
2023-02-22T01:45:08.914Z,0.0
2023-02-22T01:50:09.008Z,0.0
2023-02-22T01:55:08.085Z,0.0
2023-02-22T02:00:08.119Z,0.0
2023-02-22T02:05:08.265Z,0.0
2023-02-22T02:10:08.392Z,0.0
2023-02-22T02:15:08.477Z,0.0
2023-02-22T02:20:10.411Z,0.0
2023-02-22T02:25:08.513Z,0.0
2023-02-22T02:30:14.977Z,0.0
2023-02-22T02:35:08.075Z,0.0
2023-02-22T02:40:08.229Z,0.0
2023-02-22T02:45:08.296Z,0.0
2023-02-22T02:50:08.321Z,0.0
2023-02-22T02:55:08.387Z,0.0
2023-02-22T03:00:08.427Z,0.0
2023-02-22T03:05:08.559Z,0.0
2023-02-22T03:10:08.631Z,0.0
2023-02-22T03:15:08.689Z,0.0
2023-02-22T03:20:08.728Z,0.0
2023-02-22T03:25:08.852Z,0.0
2023-02-22T03:30:08.913Z,0.0
2023-02-22T03:35:09.036Z,0.0
2023-02-22T03:40:08.124Z,0.0
2023-02-22T03:45:08.192Z,0.0
2023-02-22T03:50:08.252Z,0.0
2023-02-22T03:55:08.280Z,0.0
2023-02-22T04:00:08.324Z,0.0
2023-02-22T04:05:08.441Z,0.0
2023-02-22T04:10:08.549Z,0.0
2023-02-22T04:15:08.606Z,0.0
2023-02-22T04:20:08.672Z,0.0
2023-02-22T04:25:08.769Z,0.0
2023-02-22T04:30:08.885Z,0.0
2023-02-22T04:35:08.998Z,0.0
2023-02-22T04:40:08.135Z,0.0
2023-02-22T04:45:08.281Z,0.0
2023-02-22T04:50:08.351Z,0.0
2023-02-22T04:55:09.225Z,0.0
2023-02-22T05:00:08.344Z,0.0
2023-02-22T05:05:02.595Z,0.0
2023-02-22T05:10:02.794Z,0.0
2023-02-22T05:15:03.093Z,0.0
2023-02-22T05:20:02.319Z,0.0
2023-02-22T05:25:02.535Z,0.0
2023-02-22T05:30:02.775Z,0.0
2023-02-22T05:35:02.962Z,0.0
2023-02-22T05:40:02.185Z,0.0
2023-02-22T05:45:02.422Z,0.0
2023-02-22T05:50:02.627Z,0.0
2023-02-22T05:55:02.849Z,0.0
2023-02-22T06:00:03.004Z,0.0
2023-02-22T06:05:02.240Z,0.0
2023-02-22T06:10:02.708Z,0.0
2023-02-22T06:15:02.983Z,0.0
2023-02-22T06:20:02.167Z,0.0
2023-02-22T06:25:02.417Z,0.0
2023-02-22T06:30:02.596Z,0.0
2023-02-22T06:35:02.965Z,0.0
2023-02-22T06:40:05.476Z,0.0
2023-02-22T06:45:03.076Z,0.0
2023-02-22T06:50:02.416Z,0.0
2023-02-22T06:55:02.561Z,0.0
2023-02-22T07:00:02.798Z,0.0
2023-02-22T07:05:03.076Z,0.0
2023-02-22T07:10:02.215Z,0.0
2023-02-22T07:15:02.365Z,0.0
2023-02-22T07:20:02.472Z,0.0
2023-02-22T07:25:02.656Z,0.0
2023-02-22T07:30:02.748Z,0.0
2023-02-22T07:35:02.927Z,0.0
2023-02-22T07:40:02.110Z,0.0
2023-02-22T07:45:02.277Z,0.0
2023-02-22T07:50:02.447Z,0.0
2023-02-22T07:55:02.664Z,0.0
2023-02-22T08:00:02.936Z,0.0
2023-02-22T08:05:03.267Z,0.0
2023-02-22T08:10:02.757Z,0.0
2023-02-22T08:15:03.016Z,0.0
2023-02-22T08:20:02.386Z,0.0
2023-02-22T08:25:02.696Z,0.0
2023-02-22T08:30:02.907Z,0.0
2023-02-22T08:35:03.279Z,0.0
2023-02-22T08:40:02.557Z,0.0
2023-02-22T08:45:02.798Z,1.1
2023-02-22T08:50:03.008Z,0.0
2023-02-22T08:55:02.171Z,0.0
2023-02-22T09:00:02.387Z,0.0
2023-02-22T09:05:02.617Z,0.0
2023-02-22T09:10:02.829Z,0.0
2023-02-22T09:15:03.077Z,0.0
2023-02-22T09:20:02.380Z,0.0
2023-02-22T09:25:15.909Z,0.0
2023-02-22T09:30:02.698Z,0.0
2023-02-22T09:35:02.942Z,0.0
2023-02-22T09:40:02.164Z,0.0
2023-02-22T09:45:02.526Z,0.0
2023-02-22T09:50:02.822Z,0.0
2023-02-22T09:55:13.070Z,0.0
2023-02-22T10:00:02.175Z,0.0
2023-02-22T10:05:02.514Z,0.0
2023-02-22T10:10:02.713Z,0.0
2023-02-22T10:15:02.860Z,0.0
2023-02-22T10:20:03.126Z,0.0
2023-02-22T10:25:02.288Z,0.0
2023-02-22T10:30:05.599Z,0.0
2023-02-22T10:35:02.220Z,0.0
2023-02-22T10:40:05.541Z,0.0
2023-02-22T10:45:02.734Z,0.0
2023-02-22T10:50:02.875Z,0.0
2023-02-22T10:55:14.742Z,0.0
2023-02-22T11:00:02.846Z,0.0
2023-02-22T11:05:03.166Z,0.0
2023-02-22T11:10:02.428Z,0.0
2023-02-22T11:15:02.727Z,0.0
2023-02-22T11:20:02.911Z,0.0
2023-02-22T11:25:03.191Z,0.0
2023-02-22T11:30:04.463Z,0.0
2023-02-22T11:35:08.931Z,0.0
2023-02-22T11:40:02.746Z,0.0
2023-02-22T11:45:08.809Z,0.0
2023-02-22T11:50:02.944Z,0.0
2023-02-22T11:55:12.139Z,0.0
2023-02-22T12:00:02.506Z,0.0
2023-02-22T12:05:02.735Z,0.0
2023-02-22T12:10:02.893Z,0.0
2023-02-22T12:15:03.182Z,0.0
2023-02-22T12:20:09.306Z,0.0
2023-02-22T12:25:09.925Z,0.0
2023-02-22T12:30:02.700Z,0.0
2023-02-22T12:35:02.921Z,0.0
2023-02-22T12:40:02.196Z,0.0
2023-02-22T12:45:03.053Z,1.3
2023-02-22T12:50:02.810Z,1.3
2023-02-22T12:55:02.963Z,0.0
2023-02-22T13:00:02.314Z,0.0
2023-02-22T13:05:02.554Z,0.0
2023-02-22T13:10:12.783Z,0.0
2023-02-22T13:15:02.934Z,0.0
2023-02-22T13:20:02.308Z,0.0
2023-02-22T13:25:02.494Z,0.0
2023-02-22T13:30:02.633Z,0.0
2023-02-22T13:35:02.917Z,0.0
2023-02-22T13:40:09.167Z,0.0
2023-02-22T13:45:02.409Z,0.0
2023-02-22T13:50:02.995Z,0.0
2023-02-22T13:55:02.171Z,0.0
2023-02-22T14:00:02.463Z,0.0
2023-02-22T14:05:02.702Z,0.0
2023-02-22T14:10:02.858Z,1.8
2023-02-22T14:15:03.185Z,1.8
2023-02-22T14:20:02.577Z,1.5
2023-02-22T14:25:02.777Z,1.5
2023-02-22T14:30:03.057Z,2.0
2023-02-22T14:35:02.220Z,2.0
2023-02-22T14:40:02.497Z,0.0
2023-02-22T14:45:02.606Z,0.0
2023-02-22T14:50:02.688Z,0.0
2023-02-22T14:55:13.053Z,0.0
2023-02-22T15:00:02.317Z,0.0
2023-02-22T15:05:02.590Z,0.0
2023-02-22T15:10:02.870Z,1.3
2023-02-22T15:15:03.080Z,1.3
2023-02-22T15:20:02.328Z,1.6
2023-02-22T15:25:02.502Z,1.6
2023-02-22T15:30:02.798Z,1.2
2023-02-22T15:35:02.871Z,1.2
2023-02-22T15:40:03.019Z,1.1
2023-02-22T15:45:02.229Z,1.1
2023-02-22T15:50:07.535Z,0.0
2023-02-22T15:55:02.724Z,0.0
2023-02-22T16:00:02.898Z,0.0
2023-02-22T16:05:03.115Z,0.0
2023-02-22T16:10:02.375Z,1.1
2023-02-22T16:15:02.616Z,1.1
2023-02-22T16:20:02.844Z,1.2
2023-02-22T16:25:03.088Z,1.2
2023-02-22T16:30:04.391Z,1.0
2023-02-22T16:35:03.135Z,1.2
2023-02-22T16:40:02.417Z,0.0
2023-02-22T16:45:02.603Z,1.2
2023-02-22T16:50:02.870Z,1.2
2023-02-22T16:55:03.182Z,1.4
2023-02-22T17:00:02.402Z,1.0
2023-02-22T17:05:02.711Z,1.1
2023-02-22T17:10:02.972Z,1.2
2023-02-22T17:15:02.450Z,1.6
2023-02-22T17:20:02.527Z,1.9
2023-02-22T17:25:02.804Z,3.0
2023-02-22T17:30:02.872Z,1.6
2023-02-22T17:35:02.953Z,1.6
2023-02-22T17:40:02.266Z,2.6
2023-02-22T17:45:02.706Z,2.6
2023-02-22T17:50:02.838Z,1.8
2023-02-22T17:55:02.986Z,1.4
2023-02-22T18:00:11.784Z,1.4
2023-02-22T18:05:02.988Z,1.7
2023-02-22T18:10:02.275Z,1.6
2023-02-22T18:15:02.441Z,0.8
2023-02-22T18:20:02.537Z,1.3
2023-02-22T18:25:02.670Z,0.0
2023-02-22T18:30:02.815Z,1.3
2023-02-22T18:35:02.994Z,1.3
2023-02-22T18:40:02.181Z,1.9
2023-02-22T18:45:02.329Z,1.2
2023-02-22T18:50:02.515Z,1.1
2023-02-22T18:55:02.765Z,0.0
2023-02-22T19:00:02.983Z,1.3
2023-02-22T19:05:02.417Z,1.3
2023-02-22T19:10:02.779Z,1.0
2023-02-22T19:15:02.958Z,0.0
2023-02-22T19:20:02.177Z,0.0
2023-02-22T19:25:02.324Z,0.0
2023-02-22T19:30:02.571Z,1.5
2023-02-22T19:35:02.762Z,1.3
2023-02-22T19:40:03.031Z,0.0
2023-02-22T19:45:02.296Z,0.0
2023-02-22T19:50:02.634Z,1.1
2023-02-22T19:55:02.874Z,0.0
2023-02-22T20:00:02.982Z,0.0
2023-02-22T20:05:02.200Z,1.1
2023-02-22T20:10:03.513Z,1.1
2023-02-22T20:15:02.543Z,0.0
2023-02-22T20:20:02.726Z,0.0
2023-02-22T20:25:02.955Z,1.1
2023-02-22T20:30:02.175Z,1.1
2023-02-22T20:35:02.333Z,0.0
2023-02-22T20:40:04.179Z,1.2
2023-02-22T20:45:02.281Z,1.0
2023-02-22T20:50:02.698Z,0.0
2023-02-22T20:55:02.883Z,0.0
2023-02-22T21:00:03.100Z,0.0
2023-02-22T21:05:02.276Z,0.0
2023-02-22T21:10:02.496Z,0.0
2023-02-22T21:15:02.802Z,0.0
2023-02-22T21:20:02.993Z,0.0
2023-02-22T21:25:02.195Z,0.0
2023-02-22T21:30:02.525Z,0.0
2023-02-22T21:35:02.720Z,0.0
2023-02-22T21:40:02.893Z,0.0
2023-02-22T21:45:03.038Z,0.0
2023-02-22T21:50:02.263Z,0.0
2023-02-22T21:55:02.505Z,0.0
2023-02-22T22:00:02.739Z,0.0
2023-02-22T22:05:15.723Z,0.0
2023-02-22T22:10:08.804Z,0.0
2023-02-22T22:15:08.887Z,1.2
2023-02-22T22:20:08.961Z,1.0
2023-02-22T22:25:08.092Z,1.1
2023-02-22T22:30:08.149Z,0.0
2023-02-22T22:35:08.771Z,0.0
2023-02-22T22:40:08.862Z,0.0
2023-02-22T22:45:08.926Z,0.0
2023-02-22T22:50:08.960Z,0.0
2023-02-22T22:55:08.047Z,0.8
2023-02-22T23:00:18.080Z,0.0
2023-02-22T23:05:08.140Z,0.0
2023-02-22T23:10:08.175Z,0.0
2023-02-22T23:15:08.220Z,0.0
2023-02-22T23:20:11.584Z,0.0
2023-02-22T23:25:08.642Z,0.0
2023-02-22T23:30:08.755Z,0.0
2023-02-22T23:35:08.830Z,0.0
2023-02-22T23:40:08.907Z,0.0
2023-02-22T23:45:08.962Z,0.0
2023-02-22T23:50:08.084Z,0.0
2023-02-22T23:55:08.151Z,0.0
